createdAt,value
2018-02-16T00:00:40.520Z,100911.97
2018-02-16T00:03:08.966Z,100916.73
2018-02-16T00:05:37.311Z,100913.95
2018-02-16T00:08:05.732Z,100918.99
2018-02-16T00:10:34.102Z,100930.45
2018-02-16T00:13:02.500Z,100927.03
2018-02-16T00:15:30.972Z,100926.69
2018-02-16T00:17:59.327Z,100931.95
2018-02-16T00:20:27.693Z,100924.94
2018-02-16T00:22:56.052Z,100926.45
2018-02-16T00:25:24.879Z,100929.77
2018-02-16T00:27:53.222Z,100937.98
2018-02-16T00:30:21.988Z,100941.14
2018-02-16T00:32:50.348Z,100945.06
2018-02-16T00:35:18.790Z,100951.42
2018-02-16T00:37:47.187Z,100947.02
2018-02-16T00:40:15.536Z,100952.91
2018-02-16T00:42:43.896Z,100960.03
2018-02-16T00:45:12.639Z,100968.31
2018-02-16T00:47:41.107Z,100975.80
2018-02-16T00:50:09.475Z,100984.92
2018-02-16T00:52:37.840Z,100984.02
2018-02-16T00:55:06.191Z,100984.06
2018-02-16T00:57:35.043Z,100983.75
2018-02-16T01:00:03.409Z,100996.34
2018-02-16T01:02:31.766Z,100994.04
2018-02-16T01:05:00.129Z,100997.03
2018-02-16T01:07:28.559Z,100998.64
2018-02-16T01:09:56.915Z,100997.48
2018-02-16T01:12:25.320Z,100994.53
2018-02-16T01:14:53.787Z,100999.18
2018-02-16T01:17:22.167Z,101001.22
2018-02-16T01:19:50.515Z,101002.72
2018-02-16T01:22:18.871Z,101006.36
2018-02-16T01:24:48.690Z,101003.55
2018-02-16T01:27:17.045Z,101005.38
2018-02-16T01:29:45.392Z,101006.95
2018-02-16T01:32:13.801Z,101006.23
2018-02-16T01:34:42.159Z,100994.34
2018-02-16T01:37:10.523Z,100990.16
2018-02-16T01:39:38.872Z,100985.81
2018-02-16T01:42:07.240Z,100985.53
2018-02-16T01:44:35.767Z,100998.05
2018-02-16T01:47:04.155Z,101006.40
2018-02-16T01:49:32.507Z,101012.21
2018-02-16T01:52:00.861Z,101009.28
2018-02-16T01:54:29.704Z,101014.76
2018-02-16T01:56:58.079Z,101031.45
2018-02-16T01:59:26.456Z,101026.09
2018-02-16T02:01:54.831Z,101019.34
2018-02-16T02:04:23.195Z,101029.53
2018-02-16T02:06:51.542Z,101027.83
2018-02-16T02:09:20.291Z,101029.38
2018-02-16T02:11:48.632Z,101028.05
2018-02-16T02:14:16.984Z,101022.56
2018-02-16T02:16:45.726Z,101024.03
2018-02-16T02:19:14.085Z,101018.30
2018-02-16T02:21:42.431Z,101027.24
2018-02-16T02:24:11.186Z,101032.83
2018-02-16T02:26:39.544Z,101040.73
2018-02-16T02:29:07.916Z,101045.64
2018-02-16T02:31:36.306Z,101053.34
2018-02-16T02:34:04.664Z,101062.65
2018-02-16T02:36:33.007Z,101068.38
2018-02-16T02:39:01.777Z,101070.59
2018-02-16T02:41:30.234Z,101076.02
2018-02-16T02:43:58.596Z,101082.85
2018-02-16T02:46:26.979Z,101082.20
2018-02-16T02:48:55.371Z,101087.09
2018-02-16T02:51:23.748Z,101090.13
2018-02-16T02:53:52.107Z,101091.97
2018-02-16T02:56:20.509Z,101091.95
2018-02-16T02:58:48.890Z,101095.98
2018-02-16T03:01:17.244Z,101108.83
2018-02-16T03:03:45.615Z,101100.45
2018-02-16T03:06:14.675Z,101105.69
2018-02-16T03:08:43.419Z,101108.36
2018-02-16T03:11:11.809Z,101122.80
2018-02-16T03:13:40.185Z,101117.64
2018-02-16T03:16:08.533Z,101118.63
2018-02-16T03:18:36.900Z,101118.72
2018-02-16T03:21:05.243Z,101125.36
2018-02-16T03:23:33.602Z,101128.97
2018-02-16T03:26:01.963Z,101128.59
2018-02-16T03:28:30.375Z,101132.04
2018-02-16T03:30:58.727Z,101125.64
2018-02-16T03:33:27.079Z,101132.04
2018-02-16T03:35:55.498Z,101139.91
2018-02-16T03:38:23.863Z,101146.84
2018-02-16T03:40:52.203Z,101151.41
2018-02-16T03:43:20.623Z,101152.07
2018-02-16T03:45:48.979Z,101146.94
2018-02-16T03:48:17.348Z,101148.83
2018-02-16T03:50:45.753Z,101149.19
2018-02-16T03:53:14.111Z,101154.04
2018-02-16T03:55:42.468Z,101150.45
2018-02-16T03:58:11.220Z,101146.91
2018-02-16T04:00:39.575Z,101152.44
2018-02-16T04:03:07.934Z,101155.59
2018-02-16T04:05:36.291Z,101158.54
2018-02-16T04:08:04.748Z,101159.80
2018-02-16T04:10:33.087Z,101159.27
2018-02-16T04:13:01.494Z,101160.51
2018-02-16T04:15:29.832Z,101164.49
2018-02-16T04:17:58.201Z,101166.97
2018-02-16T04:20:26.558Z,101175.11
2018-02-16T04:22:55.305Z,101175.02
2018-02-16T04:25:23.671Z,101175.06
2018-02-16T04:27:52.023Z,101177.50
2018-02-16T04:30:20.427Z,101181.51
2018-02-16T04:32:48.888Z,101175.19
2018-02-16T04:35:17.232Z,101176.70
2018-02-16T04:37:45.588Z,101182.17
2018-02-16T04:40:14.708Z,101179.05
2018-02-16T04:42:43.071Z,101186.18
2018-02-16T04:45:11.458Z,101194.45
2018-02-16T04:47:40.322Z,101192.51
2018-02-16T04:50:08.698Z,101193.64
2018-02-16T04:52:37.056Z,101205.72
2018-02-16T04:55:05.423Z,101205.09
2018-02-16T04:57:33.824Z,101207.77
2018-02-16T05:00:02.200Z,101212.48
2018-02-16T05:02:30.895Z,101213.02
2018-02-16T05:04:59.252Z,101213.33
2018-02-16T05:07:27.652Z,101214.70
2018-02-16T05:09:56.007Z,101218.45
2018-02-16T05:12:24.407Z,101222.64
2018-02-16T05:14:53.400Z,101221.61
2018-02-16T05:17:21.770Z,101230.73
2018-02-16T05:19:50.127Z,101230.14
2018-02-16T05:22:18.484Z,101233.77
2018-02-16T05:24:47.434Z,101232.25
2018-02-16T05:27:15.807Z,101238.89
2018-02-16T05:29:44.162Z,101243.31
2018-02-16T05:32:12.526Z,101247.14
2018-02-16T05:34:40.953Z,101248.42
2018-02-16T05:37:09.324Z,101256.23
2018-02-16T05:39:37.815Z,101261.38
2018-02-16T05:42:06.364Z,101264.00
2018-02-16T05:44:34.728Z,101271.33
2018-02-16T05:47:03.075Z,101264.75
2018-02-16T05:49:31.433Z,101272.00
2018-02-16T05:51:59.805Z,101272.30
2018-02-16T05:54:28.188Z,101276.12
2018-02-16T05:56:56.555Z,101268.00
2018-02-16T05:59:24.915Z,101273.69
2018-02-16T06:01:53.274Z,101282.52
2018-02-16T06:04:21.634Z,101274.95
2018-02-16T06:06:50.595Z,101283.83
2018-02-16T06:09:18.955Z,101285.48
2018-02-16T06:11:47.355Z,101282.68
2018-02-16T06:14:15.724Z,101280.94
2018-02-16T06:16:44.101Z,101283.49
2018-02-16T06:19:12.460Z,101287.08
2018-02-16T06:21:40.846Z,101294.74
2018-02-16T06:24:09.537Z,101296.53
2018-02-16T06:26:38.100Z,101296.72
2018-02-16T06:29:06.605Z,101297.09
2018-02-16T06:31:34.956Z,101294.44
2018-02-16T06:34:03.422Z,101295.42
2018-02-16T06:36:31.781Z,101298.55
2018-02-16T06:39:00.943Z,101309.23
2018-02-16T06:41:29.826Z,101306.95
2018-02-16T06:44:00.560Z,101300.08
2018-02-16T06:46:31.337Z,101297.52
2018-02-16T06:49:01.491Z,101303.95
2018-02-16T06:51:30.324Z,101298.47
2018-02-16T06:53:58.801Z,101302.83
2018-02-16T06:56:27.161Z,101309.48
2018-02-16T06:58:55.962Z,101323.35
2018-02-16T07:01:24.340Z,101326.84
2018-02-16T07:03:52.733Z,101326.30
2018-02-16T07:06:22.589Z,101330.25
2018-02-16T07:08:51.452Z,101328.85
2018-02-16T07:11:19.847Z,101341.56
2018-02-16T07:13:48.602Z,101332.53
2018-02-16T07:16:17.066Z,101335.13
2018-02-16T07:18:45.450Z,101340.95
2018-02-16T07:21:13.827Z,101343.30
2018-02-16T07:23:42.186Z,101342.37
2018-02-16T07:26:10.586Z,101347.32
2018-02-16T07:28:39.069Z,101351.25
2018-02-16T07:31:08.467Z,101356.89
2018-02-16T07:33:36.836Z,101360.10
2018-02-16T07:36:05.230Z,101364.05
2018-02-16T07:38:33.584Z,101357.07
2018-02-16T07:41:01.964Z,101358.95
2018-02-16T07:43:30.328Z,101365.73
2018-02-16T07:45:58.671Z,101364.41
2018-02-16T07:48:27.127Z,101364.91
2018-02-16T07:50:55.565Z,101360.86
2018-02-16T07:53:23.955Z,101359.84
2018-02-16T07:55:52.307Z,101363.84
2018-02-16T07:58:21.165Z,101375.33
2018-02-16T08:00:49.522Z,101375.30
2018-02-16T08:03:17.912Z,101373.95
2018-02-16T08:05:46.303Z,101382.69
2018-02-16T08:08:14.758Z,101377.59
2018-02-16T08:10:43.139Z,101384.25
2018-02-16T08:13:11.523Z,101382.69
2018-02-16T08:15:40.102Z,101376.80
2018-02-16T08:18:08.520Z,101374.62
2018-02-16T08:20:36.966Z,101375.70
2018-02-16T08:23:05.351Z,101382.37
2018-02-16T08:25:33.721Z,101381.30
2018-02-16T08:28:02.080Z,101392.87
2018-02-16T08:30:30.679Z,101390.66
2018-02-16T08:32:59.050Z,101394.59
2018-02-16T08:35:27.419Z,101393.36
2018-02-16T08:37:55.811Z,101394.42
2018-02-16T08:40:24.139Z,101403.85
2018-02-16T08:42:52.904Z,101403.11
2018-02-16T08:45:21.271Z,101405.98
2018-02-16T08:47:49.639Z,101416.60
2018-02-16T08:50:17.997Z,101418.63
2018-02-16T08:52:46.358Z,101419.61
2018-02-16T08:55:15.112Z,101419.41
2018-02-16T08:57:43.481Z,101422.64
2018-02-16T09:00:11.833Z,101422.54
2018-02-16T09:02:40.224Z,101432.88
2018-02-16T09:05:08.575Z,101431.70
2018-02-16T09:07:36.939Z,101432.84
2018-02-16T09:10:05.772Z,101430.86
2018-02-16T09:12:34.132Z,101433.77
2018-02-16T09:15:02.488Z,101433.63
2018-02-16T09:17:31.244Z,101432.89
2018-02-16T09:19:59.696Z,101435.62
2018-02-16T09:22:28.076Z,101434.02
2018-02-16T09:24:56.444Z,101435.83
2018-02-16T09:27:24.813Z,101436.02
2018-02-16T09:29:53.936Z,101446.47
2018-02-16T09:32:22.307Z,101447.23
2018-02-16T09:34:50.672Z,101455.00
2018-02-16T09:37:19.679Z,101447.54
2018-02-16T09:39:49.478Z,101452.47
2018-02-16T09:42:17.835Z,101450.27
2018-02-16T09:44:46.200Z,101456.94
2018-02-16T09:47:15.037Z,101461.77
2018-02-16T09:49:43.391Z,101460.41
2018-02-16T09:52:11.751Z,101465.27
2018-02-16T09:54:40.598Z,101464.25
2018-02-16T09:57:09.063Z,101470.46
2018-02-16T09:59:37.420Z,101479.30
2018-02-16T10:02:05.819Z,101477.70
2018-02-16T10:04:34.180Z,101480.00
2018-02-16T10:07:02.607Z,101485.68
2018-02-16T10:09:31.068Z,101500.46
2018-02-16T10:11:59.427Z,101496.95
2018-02-16T10:14:27.823Z,101489.80
2018-02-16T10:16:56.180Z,101496.69
2018-02-16T10:19:24.546Z,101494.72
2018-02-16T10:21:52.924Z,101503.16
2018-02-16T10:24:21.280Z,101499.47
2018-02-16T10:26:50.238Z,101505.91
2018-02-16T10:29:18.720Z,101497.81
2018-02-16T10:31:47.108Z,101507.34
2018-02-16T10:34:15.536Z,101510.92
2018-02-16T10:36:43.866Z,101503.98
2018-02-16T10:39:12.324Z,101511.37
2018-02-16T10:41:40.682Z,101515.52
2018-02-16T10:44:09.084Z,101515.69
2018-02-16T10:46:37.444Z,101528.85
2018-02-16T10:49:05.838Z,101532.72
2018-02-16T10:51:34.195Z,101536.14
2018-02-16T10:54:02.588Z,101543.94
2018-02-16T10:56:30.975Z,101546.86
2018-02-16T10:58:59.336Z,101548.55
2018-02-16T11:01:27.697Z,101537.42
2018-02-16T11:03:58.992Z,101553.89
2018-02-16T11:06:32.930Z,101531.00
2018-02-16T11:09:07.231Z,101533.68
2018-02-16T11:11:35.590Z,101541.16
2018-02-16T11:14:03.940Z,101539.83
2018-02-16T11:16:32.611Z,101543.37
2018-02-16T11:19:01.028Z,101549.92
2018-02-16T11:21:29.419Z,101544.25
2018-02-16T11:23:57.788Z,101545.91
2018-02-16T11:26:26.163Z,101553.30
2018-02-16T11:28:54.543Z,101552.48
2018-02-16T11:31:22.910Z,101550.31
2018-02-16T11:33:51.272Z,101555.00
2018-02-16T11:36:19.692Z,101565.14
2018-02-16T11:38:48.046Z,101558.58
2018-02-16T11:41:16.517Z,101562.84
2018-02-16T11:43:44.872Z,101563.67
2018-02-16T11:46:13.708Z,101562.02
2018-02-16T11:48:42.088Z,101559.39
2018-02-16T11:51:10.445Z,101574.30
2018-02-16T11:53:38.819Z,101558.51
2018-02-16T11:56:07.220Z,101557.33
2018-02-16T11:58:35.588Z,101559.77
2018-02-16T12:01:03.956Z,101559.34
2018-02-16T12:03:32.391Z,101561.51
2018-02-16T12:06:00.840Z,101566.91
2018-02-16T12:08:29.199Z,101571.95
2018-02-16T12:10:58.394Z,101578.06
2018-02-16T12:13:26.801Z,101573.88
2018-02-16T12:15:55.151Z,101576.38
2018-02-16T12:18:23.535Z,101572.23
2018-02-16T12:20:51.932Z,101579.98
2018-02-16T12:23:20.320Z,101581.84
2018-02-16T12:25:48.684Z,101588.97
2018-02-16T12:28:17.800Z,101585.67
2018-02-16T12:30:46.188Z,101594.39
2018-02-16T12:33:14.660Z,101595.38
2018-02-16T12:35:43.024Z,101590.60
2018-02-16T12:38:11.390Z,101586.58
2018-02-16T12:40:39.771Z,101591.39
2018-02-16T12:43:08.150Z,101595.70
2018-02-16T12:45:36.507Z,101594.09
2018-02-16T12:48:04.872Z,101594.58
2018-02-16T12:50:33.219Z,101593.01
2018-02-16T12:53:01.583Z,101598.23
2018-02-16T12:55:29.939Z,101589.42
2018-02-16T12:57:58.307Z,101601.42
2018-02-16T13:00:26.732Z,101598.66
2018-02-16T13:02:55.136Z,101592.47
2018-02-16T13:05:23.907Z,101597.97
2018-02-16T13:07:52.300Z,101595.39
2018-02-16T13:10:21.050Z,101595.77
2018-02-16T13:12:49.420Z,101582.44
2018-02-16T13:15:17.779Z,101593.70
2018-02-16T13:17:46.184Z,101588.31
2018-02-16T13:20:14.537Z,101593.31
2018-02-16T13:22:42.906Z,101592.47
2018-02-16T13:25:11.325Z,101585.53
2018-02-16T13:27:39.688Z,101587.75
2018-02-16T13:30:08.081Z,101592.98
2018-02-16T13:32:37.276Z,101599.02
2018-02-16T13:35:05.657Z,101597.70
2018-02-16T13:37:34.028Z,101603.58
2018-02-16T13:40:02.391Z,101605.27
2018-02-16T13:42:30.765Z,101610.08
2018-02-16T13:44:59.106Z,101607.97
2018-02-16T13:47:27.864Z,101605.20
2018-02-16T13:49:56.231Z,101600.72
2018-02-16T13:52:24.592Z,101590.88
2018-02-16T13:54:52.970Z,101607.56
2018-02-16T13:57:21.367Z,101605.94
2018-02-16T13:59:49.756Z,101608.44
2018-02-16T14:02:18.126Z,101601.98
2018-02-16T14:04:46.492Z,101609.28
2018-02-16T14:07:14.896Z,101611.77
2018-02-16T14:09:43.264Z,101614.56
2018-02-16T14:12:11.620Z,101613.74
2018-02-16T14:14:40.025Z,101610.38
2018-02-16T14:17:08.387Z,101620.45
2018-02-16T14:19:36.793Z,101630.45
2018-02-16T14:22:05.166Z,101642.70
2018-02-16T14:24:33.545Z,101633.14
2018-02-16T14:27:02.008Z,101631.09
2018-02-16T14:29:30.363Z,101634.05
2018-02-16T14:31:58.787Z,101640.32
2018-02-16T14:34:27.149Z,101639.45
2018-02-16T14:36:55.578Z,101643.86
2018-02-16T14:39:24.548Z,101649.53
2018-02-16T14:41:53.130Z,101654.61
2018-02-16T14:44:21.500Z,101646.38
2018-02-16T14:46:49.872Z,101653.69
2018-02-16T14:49:18.232Z,101659.44
2018-02-16T14:51:46.583Z,101655.18
2018-02-16T14:54:14.932Z,101665.14
2018-02-16T14:56:43.383Z,101659.59
2018-02-16T14:59:11.735Z,101657.61
2018-02-16T15:01:40.097Z,101660.63
2018-02-16T15:04:08.932Z,101665.52
2018-02-16T15:06:37.297Z,101661.59
2018-02-16T15:09:05.661Z,101668.86
2018-02-16T15:11:34.057Z,101670.55
2018-02-16T15:14:02.420Z,101673.79
2018-02-16T15:16:30.790Z,101666.32
2018-02-16T15:18:59.209Z,101672.55
2018-02-16T15:21:27.600Z,101666.87
2018-02-16T15:23:55.968Z,101671.74
2018-02-16T15:26:24.331Z,101669.36
2018-02-16T15:28:52.701Z,101675.22
2018-02-16T15:31:21.882Z,101672.91
2018-02-16T15:33:50.237Z,101677.11
2018-02-16T15:36:18.591Z,101666.85
2018-02-16T15:38:46.942Z,101673.73
2018-02-16T15:41:15.316Z,101679.64
2018-02-16T15:43:43.671Z,101678.38
2018-02-16T15:46:12.037Z,101679.59
2018-02-16T15:48:42.123Z,101685.40
2018-02-16T15:51:10.580Z,101690.27
2018-02-16T15:53:38.923Z,101694.45
2018-02-16T15:56:07.276Z,101690.01
2018-02-16T15:58:35.637Z,101689.61
2018-02-16T16:01:04.008Z,101691.89
2018-02-16T16:03:32.371Z,101687.48
2018-02-16T16:06:00.719Z,101703.24
2018-02-16T16:08:29.063Z,101711.44
2018-02-16T16:10:57.425Z,101706.75
2018-02-16T16:13:25.808Z,101714.70
2018-02-16T16:15:54.163Z,101717.11
2018-02-16T16:18:22.523Z,101715.85
2018-02-16T16:20:50.878Z,101721.33
2018-02-16T16:23:19.699Z,101721.52
2018-02-16T16:25:48.083Z,101730.61
2018-02-16T16:28:16.435Z,101735.97
2018-02-16T16:30:44.809Z,101733.06
2018-02-16T16:33:13.169Z,101739.52
2018-02-16T16:35:41.917Z,101743.83
2018-02-16T16:38:10.307Z,101740.50
2018-02-16T16:40:38.673Z,101746.63
2018-02-16T16:43:07.024Z,101747.91
2018-02-16T16:45:35.392Z,101754.34
2018-02-16T16:48:03.803Z,101759.01
2018-02-16T16:50:32.160Z,101755.11
2018-02-16T16:53:00.564Z,101758.61
2018-02-16T16:55:28.923Z,101759.06
2018-02-16T16:57:57.432Z,101765.18
2018-02-16T17:00:25.815Z,101769.54
2018-02-16T17:02:54.191Z,101771.88
2018-02-16T17:05:22.570Z,101780.09
2018-02-16T17:07:50.915Z,101781.63
2018-02-16T17:10:19.278Z,101783.02
2018-02-16T17:12:48.034Z,101789.12
2018-02-16T17:15:16.413Z,101792.28
2018-02-16T17:17:44.777Z,101792.67
2018-02-16T17:20:13.170Z,101788.37
2018-02-16T17:22:41.625Z,101793.70
2018-02-16T17:25:10.099Z,101792.92
2018-02-16T17:27:38.453Z,101795.42
2018-02-16T17:30:06.844Z,101796.13
2018-02-16T17:32:35.192Z,101799.59
2018-02-16T17:35:04.006Z,101794.16
2018-02-16T17:37:32.356Z,101790.41
2018-02-16T17:40:01.115Z,101795.46
2018-02-16T17:42:29.488Z,101795.73
2018-02-16T17:44:57.864Z,101800.59
2018-02-16T17:47:26.235Z,101802.70
2018-02-16T17:49:54.602Z,101810.42
2018-02-16T17:52:22.984Z,101799.15
2018-02-16T17:54:51.355Z,101804.59
2018-02-16T17:57:19.757Z,101805.26
2018-02-16T17:59:48.166Z,101814.87
2018-02-16T18:02:16.920Z,101811.89
2018-02-16T18:04:45.284Z,101813.42
2018-02-16T18:07:13.663Z,101812.10
2018-02-16T18:09:42.020Z,101815.26
2018-02-16T18:12:10.364Z,101817.53
2018-02-16T18:14:38.771Z,101819.88
2018-02-16T18:17:07.135Z,101814.79
2018-02-16T18:19:35.895Z,101820.33
2018-02-16T18:22:04.259Z,101826.47
2018-02-16T18:24:32.632Z,101822.70
2018-02-16T18:27:01.019Z,101822.48
2018-02-16T18:29:29.379Z,101818.39
2018-02-16T18:31:57.730Z,101821.70
2018-02-16T18:34:26.079Z,101824.48
2018-02-16T18:36:54.520Z,101824.34
2018-02-16T18:39:22.907Z,101818.83
2018-02-16T18:41:51.279Z,101820.52
2018-02-16T18:44:19.648Z,101824.83
2018-02-16T18:46:48.043Z,101830.59
2018-02-16T18:49:16.392Z,101829.03
2018-02-16T18:51:44.741Z,101824.48
2018-02-16T18:54:13.504Z,101826.35
2018-02-16T18:56:41.861Z,101832.95
2018-02-16T18:59:10.239Z,101838.67
2018-02-16T19:01:38.647Z,101839.75
2018-02-16T19:04:07.100Z,101836.67
2018-02-16T19:06:35.479Z,101839.48
2018-02-16T19:09:03.839Z,101842.40
2018-02-16T19:11:32.239Z,101840.65
2018-02-16T19:14:00.592Z,101843.84
2018-02-16T19:16:28.996Z,101838.41
2018-02-16T19:18:57.376Z,101839.11
2018-02-16T19:21:25.723Z,101842.87
2018-02-16T19:23:54.083Z,101837.04
2018-02-16T19:26:22.434Z,101842.45
2018-02-16T19:28:50.839Z,101838.25
2018-02-16T19:31:19.164Z,101840.86
2018-02-16T19:33:47.543Z,101841.80
2018-02-16T19:36:15.903Z,101836.01
2018-02-16T19:38:44.308Z,101834.77
2018-02-16T19:41:12.719Z,101838.96
2018-02-16T19:43:41.060Z,101832.00
2018-02-16T19:46:09.435Z,101835.41
2018-02-16T19:48:37.795Z,101835.05
2018-02-16T19:51:06.145Z,101837.50
2018-02-16T19:53:34.976Z,101834.38
2018-02-16T19:56:03.387Z,101834.22
2018-02-16T19:58:31.754Z,101837.42
2018-02-16T20:01:00.122Z,101833.30
2018-02-16T20:03:28.484Z,101837.13
2018-02-16T20:05:56.884Z,101841.84
2018-02-16T20:08:25.248Z,101840.36
2018-02-16T20:10:53.644Z,101842.48
2018-02-16T20:13:22.012Z,101845.76
2018-02-16T20:15:50.384Z,101844.23
2018-02-16T20:18:18.741Z,101837.77
2018-02-16T20:20:47.089Z,101846.73
2018-02-16T20:23:16.017Z,101847.41
2018-02-16T20:25:44.375Z,101846.79
2018-02-16T20:28:13.132Z,101843.86
2018-02-16T20:30:42.406Z,101844.75
2018-02-16T20:33:10.799Z,101843.13
2018-02-16T20:35:39.178Z,101840.96
2018-02-16T20:38:07.652Z,101846.99
2018-02-16T20:40:36.019Z,101833.51
2018-02-16T20:43:04.416Z,101840.14
2018-02-16T20:45:32.759Z,101843.47
2018-02-16T20:48:01.116Z,101843.06
2018-02-16T20:50:29.867Z,101847.63
2018-02-16T20:52:58.323Z,101840.63
2018-02-16T20:55:26.700Z,101856.48
2018-02-16T20:57:55.092Z,101847.48
2018-02-16T21:00:23.455Z,101860.02
2018-02-16T21:02:51.805Z,101860.15
2018-02-16T21:05:20.143Z,101854.90
2018-02-16T21:07:48.599Z,101865.48
2018-02-16T21:10:16.979Z,101868.82
2018-02-16T21:12:45.364Z,101869.05
2018-02-16T21:15:13.726Z,101868.47
2018-02-16T21:17:42.107Z,101866.10
2018-02-16T21:20:10.487Z,101870.67
2018-02-16T21:22:38.883Z,101868.67
2018-02-16T21:25:07.276Z,101874.32
2018-02-16T21:27:35.736Z,101872.03
2018-02-16T21:30:04.099Z,101880.63
2018-02-16T21:32:33.246Z,101874.37
2018-02-16T21:35:01.601Z,101873.78
2018-02-16T21:37:29.940Z,101875.88
2018-02-16T21:39:58.299Z,101883.09
2018-02-16T21:42:26.660Z,101875.04
2018-02-16T21:44:55.503Z,101884.13
2018-02-16T21:47:23.895Z,101885.45
2018-02-16T21:49:52.259Z,101888.86
2018-02-16T21:52:20.743Z,101888.77
2018-02-16T21:54:49.133Z,101889.02
2018-02-16T21:57:17.514Z,101896.91
2018-02-16T21:59:45.949Z,101895.85
2018-02-16T22:02:14.246Z,101893.83
2018-02-16T22:04:42.625Z,101894.33
2018-02-16T22:07:11.024Z,101897.37
2018-02-16T22:09:39.387Z,101891.84
2018-02-16T22:12:07.779Z,101894.09
2018-02-16T22:14:36.159Z,101890.60
2018-02-16T22:17:04.531Z,101892.56
2018-02-16T22:19:32.938Z,101890.58
2018-02-16T22:22:01.945Z,101894.15
2018-02-16T22:24:30.372Z,101893.94
2018-02-16T22:26:58.749Z,101888.57
2018-02-16T22:29:27.157Z,101891.09
2018-02-16T22:31:55.568Z,101896.61
2018-02-16T22:34:24.032Z,101897.26
2018-02-16T22:36:52.419Z,101901.57
2018-02-16T22:39:20.798Z,101902.97
2018-02-16T22:41:49.164Z,101903.31
2018-02-16T22:44:17.544Z,101898.86
2018-02-16T22:46:45.905Z,101897.98
2018-02-16T22:49:14.272Z,101898.56
2018-02-16T22:51:42.691Z,101897.42
2018-02-16T22:54:11.051Z,101899.38
2018-02-16T22:56:39.420Z,101898.12
2018-02-16T22:59:07.860Z,101895.75
2018-02-16T23:01:36.203Z,101906.77
2018-02-16T23:04:04.689Z,101905.51
2018-02-16T23:06:33.064Z,101902.88
2018-02-16T23:09:01.464Z,101897.78
2018-02-16T23:11:30.215Z,101893.84
2018-02-16T23:13:58.611Z,101892.38
2018-02-16T23:16:27.121Z,101884.20
2018-02-16T23:18:55.921Z,101891.37
2018-02-16T23:21:24.339Z,101891.48
2018-02-16T23:23:52.764Z,101891.34
2018-02-16T23:26:21.613Z,101881.35
2018-02-16T23:28:49.991Z,101886.31
2018-02-16T23:31:18.393Z,101884.41
2018-02-16T23:33:46.781Z,101886.63
2018-02-16T23:36:15.643Z,101886.97
2018-02-16T23:38:44.115Z,101874.04
2018-02-16T23:41:12.491Z,101868.88
2018-02-16T23:43:40.841Z,101880.34
2018-02-16T23:46:09.199Z,101879.31
2018-02-16T23:48:37.603Z,101872.08
2018-02-16T23:51:05.981Z,101871.13
2018-02-16T23:53:34.359Z,101872.16
2018-02-16T23:56:02.731Z,101875.14
2018-02-16T23:58:31.101Z,101877.09
